sensor_id;sensor_type;location;lat;lon;timestamp;P1;durP1;ratioP1;P2;durP2;ratioP2
3267;SDS011;1646;52.450;13.326;2023-03-29T00:02:20;7.13;;;2.90;;
3267;SDS011;1646;52.450;13.326;2023-03-29T00:07:26;6.20;;;2.60;;
3267;SDS011;1646;52.450;13.326;2023-03-29T00:12:27;5.17;;;2.93;;
3267;SDS011;1646;52.450;13.326;2023-03-29T00:17:25;7.67;;;3.03;;
3267;SDS011;1646;52.450;13.326;2023-03-29T00:22:24;15.53;;;3.57;;
3267;SDS011;1646;52.450;13.326;2023-03-29T00:27:22;5.77;;;2.83;;
3267;SDS011;1646;52.450;13.326;2023-03-29T00:32:22;11.03;;;2.50;;
3267;SDS011;1646;52.450;13.326;2023-03-29T00:37:20;7.20;;;2.57;;
3267;SDS011;1646;52.450;13.326;2023-03-29T00:42:22;9.37;;;2.80;;
3267;SDS011;1646;52.450;13.326;2023-03-29T00:47:24;7.20;;;2.60;;
3267;SDS011;1646;52.450;13.326;2023-03-29T00:52:25;21.77;;;2.90;;
3267;SDS011;1646;52.450;13.326;2023-03-29T00:57:25;4.60;;;2.23;;
3267;SDS011;1646;52.450;13.326;2023-03-29T01:02:28;13.07;;;3.17;;
3267;SDS011;1646;52.450;13.326;2023-03-29T01:07:32;4.97;;;2.40;;
3267;SDS011;1646;52.450;13.326;2023-03-29T01:12:36;7.40;;;2.70;;
3267;SDS011;1646;52.450;13.326;2023-03-29T01:17:41;8.20;;;2.60;;
3267;SDS011;1646;52.450;13.326;2023-03-29T01:22:53;4.50;;;2.30;;
3267;SDS011;1646;52.450;13.326;2023-03-29T01:28:01;5.73;;;3.07;;
3267;SDS011;1646;52.450;13.326;2023-03-29T01:33:03;5.60;;;2.47;;
3267;SDS011;1646;52.450;13.326;2023-03-29T01:38:08;6.83;;;2.90;;
3267;SDS011;1646;52.450;13.326;2023-03-29T01:43:15;8.37;;;3.10;;
3267;SDS011;1646;52.450;13.326;2023-03-29T01:48:23;5.97;;;2.67;;
3267;SDS011;1646;52.450;13.326;2023-03-29T01:53:26;5.80;;;2.40;;
3267;SDS011;1646;52.450;13.326;2023-03-29T01:58:30;5.07;;;2.67;;
3267;SDS011;1646;52.450;13.326;2023-03-29T02:03:30;7.10;;;2.73;;
3267;SDS011;1646;52.450;13.326;2023-03-29T02:08:38;10.40;;;3.10;;
3267;SDS011;1646;52.450;13.326;2023-03-29T02:13:39;5.47;;;2.83;;
3267;SDS011;1646;52.450;13.326;2023-03-29T02:18:37;6.03;;;2.70;;
3267;SDS011;1646;52.450;13.326;2023-03-29T02:23:38;7.20;;;2.93;;
3267;SDS011;1646;52.450;13.326;2023-03-29T02:28:43;5.20;;;2.63;;
3267;SDS011;1646;52.450;13.326;2023-03-29T02:33:44;6.43;;;2.80;;
3267;SDS011;1646;52.450;13.326;2023-03-29T02:38:47;5.57;;;2.50;;
3267;SDS011;1646;52.450;13.326;2023-03-29T02:43:46;8.33;;;3.37;;
3267;SDS011;1646;52.450;13.326;2023-03-29T02:48:45;10.23;;;2.53;;
3267;SDS011;1646;52.450;13.326;2023-03-29T02:53:48;7.07;;;2.87;;
3267;SDS011;1646;52.450;13.326;2023-03-29T02:58:51;7.70;;;3.20;;
3267;SDS011;1646;52.450;13.326;2023-03-29T03:03:49;11.50;;;3.00;;
3267;SDS011;1646;52.450;13.326;2023-03-29T03:08:48;12.10;;;2.73;;
3267;SDS011;1646;52.450;13.326;2023-03-29T03:13:46;8.70;;;2.93;;
3267;SDS011;1646;52.450;13.326;2023-03-29T03:18:46;6.27;;;3.30;;
3267;SDS011;1646;52.450;13.326;2023-03-29T03:23:46;8.93;;;2.53;;
3267;SDS011;1646;52.450;13.326;2023-03-29T03:28:45;10.83;;;3.30;;
3267;SDS011;1646;52.450;13.326;2023-03-29T03:34:05;11.50;;;2.90;;
3267;SDS011;1646;52.450;13.326;2023-03-29T03:39:10;7.47;;;3.17;;
3267;SDS011;1646;52.450;13.326;2023-03-29T03:44:08;7.60;;;3.33;;
3267;SDS011;1646;52.450;13.326;2023-03-29T03:49:09;12.93;;;4.07;;
3267;SDS011;1646;52.450;13.326;2023-03-29T03:54:09;13.07;;;3.90;;
3267;SDS011;1646;52.450;13.326;2023-03-29T03:59:27;9.90;;;3.60;;
3267;SDS011;1646;52.450;13.326;2023-03-29T04:04:34;9.30;;;3.50;;
3267;SDS011;1646;52.450;13.326;2023-03-29T04:09:45;8.30;;;3.83;;
3267;SDS011;1646;52.450;13.326;2023-03-29T04:15:05;9.97;;;4.10;;
3267;SDS011;1646;52.450;13.326;2023-03-29T04:20:11;6.73;;;3.60;;
3267;SDS011;1646;52.450;13.326;2023-03-29T04:25:10;6.20;;;3.30;;
3267;SDS011;1646;52.450;13.326;2023-03-29T04:30:08;14.03;;;4.23;;
3267;SDS011;1646;52.450;13.326;2023-03-29T04:35:29;9.50;;;4.10;;
3267;SDS011;1646;52.450;13.326;2023-03-29T04:40:28;11.30;;;4.07;;
3267;SDS011;1646;52.450;13.326;2023-03-29T04:45:37;11.50;;;3.90;;
3267;SDS011;1646;52.450;13.326;2023-03-29T04:50:46;13.73;;;4.00;;
3267;SDS011;1646;52.450;13.326;2023-03-29T04:55:46;17.13;;;4.97;;
3267;SDS011;1646;52.450;13.326;2023-03-29T05:00:55;7.40;;;4.30;;
3267;SDS011;1646;52.450;13.326;2023-03-29T05:06:02;10.30;;;4.60;;
3267;SDS011;1646;52.450;13.326;2023-03-29T05:11:04;9.87;;;5.37;;
3267;SDS011;1646;52.450;13.326;2023-03-29T05:16:03;11.23;;;5.30;;
3267;SDS011;1646;52.450;13.326;2023-03-29T05:21:05;8.63;;;4.20;;
3267;SDS011;1646;52.450;13.326;2023-03-29T05:26:06;13.07;;;4.73;;
3267;SDS011;1646;52.450;13.326;2023-03-29T05:31:07;13.50;;;5.23;;
3267;SDS011;1646;52.450;13.326;2023-03-29T05:36:10;8.87;;;4.10;;
3267;SDS011;1646;52.450;13.326;2023-03-29T05:41:14;8.23;;;4.37;;
3267;SDS011;1646;52.450;13.326;2023-03-29T05:46:40;10.90;;;4.60;;
3267;SDS011;1646;52.450;13.326;2023-03-29T05:51:44;9.20;;;4.30;;
3267;SDS011;1646;52.450;13.326;2023-03-29T05:56:43;13.33;;;4.57;;
3267;SDS011;1646;52.450;13.326;2023-03-29T06:01:43;11.20;;;4.00;;
3267;SDS011;1646;52.450;13.326;2023-03-29T06:06:49;10.10;;;4.10;;
3267;SDS011;1646;52.450;13.326;2023-03-29T06:11:48;9.33;;;4.23;;
3267;SDS011;1646;52.450;13.326;2023-03-29T06:16:56;5.43;;;3.60;;
3267;SDS011;1646;52.450;13.326;2023-03-29T06:21:56;12.70;;;3.97;;
3267;SDS011;1646;52.450;13.326;2023-03-29T06:26:56;16.07;;;4.33;;
3267;SDS011;1646;52.450;13.326;2023-03-29T06:31:54;16.33;;;4.40;;
3267;SDS011;1646;52.450;13.326;2023-03-29T06:37:30;9.83;;;3.80;;
3267;SDS011;1646;52.450;13.326;2023-03-29T06:42:43;10.97;;;3.93;;
3267;SDS011;1646;52.450;13.326;2023-03-29T06:48:08;10.20;;;4.63;;
3267;SDS011;1646;52.450;13.326;2023-03-29T06:53:10;6.20;;;3.27;;
3267;SDS011;1646;52.450;13.326;2023-03-29T06:58:10;7.67;;;3.87;;
3267;SDS011;1646;52.450;13.326;2023-03-29T07:03:09;11.13;;;4.17;;
3267;SDS011;1646;52.450;13.326;2023-03-29T07:08:19;19.30;;;4.20;;
3267;SDS011;1646;52.450;13.326;2023-03-29T07:13:30;7.60;;;3.30;;
3267;SDS011;1646;52.450;13.326;2023-03-29T07:18:32;7.33;;;3.80;;
3267;SDS011;1646;52.450;13.326;2023-03-29T07:23:32;12.93;;;3.30;;
3267;SDS011;1646;52.450;13.326;2023-03-29T07:28:31;8.47;;;4.83;;
3267;SDS011;1646;52.450;13.326;2023-03-29T07:33:30;8.30;;;3.43;;
3267;SDS011;1646;52.450;13.326;2023-03-29T07:38:33;6.33;;;3.27;;
3267;SDS011;1646;52.450;13.326;2023-03-29T07:43:38;9.50;;;4.43;;
3267;SDS011;1646;52.450;13.326;2023-03-29T07:48:38;7.43;;;3.73;;
3267;SDS011;1646;52.450;13.326;2023-03-29T07:53:40;9.00;;;3.67;;
3267;SDS011;1646;52.450;13.326;2023-03-29T07:59:02;9.73;;;3.50;;
3267;SDS011;1646;52.450;13.326;2023-03-29T08:04:00;9.47;;;3.50;;
3267;SDS011;1646;52.450;13.326;2023-03-29T08:09:40;6.57;;;3.27;;
3267;SDS011;1646;52.450;13.326;2023-03-29T08:14:39;7.40;;;2.83;;
3267;SDS011;1646;52.450;13.326;2023-03-29T08:20:00;7.57;;;3.17;;
3267;SDS011;1646;52.450;13.326;2023-03-29T08:25:01;4.00;;;2.73;;
3267;SDS011;1646;52.450;13.326;2023-03-29T08:30:05;8.93;;;2.90;;
3267;SDS011;1646;52.450;13.326;2023-03-29T08:35:07;5.07;;;2.70;;
3267;SDS011;1646;52.450;13.326;2023-03-29T08:40:16;9.87;;;3.17;;
3267;SDS011;1646;52.450;13.326;2023-03-29T08:45:43;4.63;;;2.90;;
3267;SDS011;1646;52.450;13.326;2023-03-29T08:50:54;5.60;;;3.13;;
3267;SDS011;1646;52.450;13.326;2023-03-29T08:56:00;6.20;;;3.13;;
3267;SDS011;1646;52.450;13.326;2023-03-29T09:01:33;7.17;;;3.23;;
3267;SDS011;1646;52.450;13.326;2023-03-29T09:06:33;6.23;;;2.90;;
3267;SDS011;1646;52.450;13.326;2023-03-29T09:11:51;5.73;;;3.50;;
3267;SDS011;1646;52.450;13.326;2023-03-29T09:17:04;8.80;;;3.40;;
3267;SDS011;1646;52.450;13.326;2023-03-29T09:22:13;7.53;;;3.70;;
3267;SDS011;1646;52.450;13.326;2023-03-29T09:27:22;3.37;;;2.40;;
3267;SDS011;1646;52.450;13.326;2023-03-29T09:32:38;4.03;;;2.83;;
3267;SDS011;1646;52.450;13.326;2023-03-29T09:37:44;6.50;;;4.10;;
3267;SDS011;1646;52.450;13.326;2023-03-29T09:42:45;5.50;;;3.00;;
3267;SDS011;1646;52.450;13.326;2023-03-29T09:47:48;5.50;;;3.37;;
3267;SDS011;1646;52.450;13.326;2023-03-29T09:52:50;3.70;;;2.60;;
3267;SDS011;1646;52.450;13.326;2023-03-29T09:57:53;4.33;;;2.80;;
3267;SDS011;1646;52.450;13.326;2023-03-29T10:02:56;3.57;;;2.60;;
3267;SDS011;1646;52.450;13.326;2023-03-29T10:08:11;7.33;;;3.17;;
3267;SDS011;1646;52.450;13.326;2023-03-29T10:13:17;5.67;;;3.63;;
3267;SDS011;1646;52.450;13.326;2023-03-29T10:18:19;4.70;;;2.70;;
3267;SDS011;1646;52.450;13.326;2023-03-29T10:23:17;5.93;;;3.13;;
3267;SDS011;1646;52.450;13.326;2023-03-29T10:28:17;6.00;;;2.87;;
3267;SDS011;1646;52.450;13.326;2023-03-29T10:33:19;4.67;;;3.20;;
3267;SDS011;1646;52.450;13.326;2023-03-29T10:38:20;5.63;;;3.10;;
3267;SDS011;1646;52.450;13.326;2023-03-29T10:43:25;3.93;;;2.83;;
3267;SDS011;1646;52.450;13.326;2023-03-29T10:48:28;6.07;;;3.20;;
3267;SDS011;1646;52.450;13.326;2023-03-29T10:53:27;6.43;;;3.10;;
3267;SDS011;1646;52.450;13.326;2023-03-29T10:58:32;3.00;;;2.70;;
3267;SDS011;1646;52.450;13.326;2023-03-29T11:03:53;9.13;;;2.57;;
3267;SDS011;1646;52.450;13.326;2023-03-29T11:09:04;4.60;;;3.30;;
3267;SDS011;1646;52.450;13.326;2023-03-29T11:14:15;4.60;;;2.80;;
3267;SDS011;1646;52.450;13.326;2023-03-29T11:19:28;5.93;;;3.17;;
3267;SDS011;1646;52.450;13.326;2023-03-29T11:24:46;9.80;;;3.30;;
3267;SDS011;1646;52.450;13.326;2023-03-29T11:29:56;8.10;;;3.70;;
3267;SDS011;1646;52.450;13.326;2023-03-29T11:35:04;5.30;;;3.20;;
3267;SDS011;1646;52.450;13.326;2023-03-29T11:40:19;5.60;;;3.60;;
3267;SDS011;1646;52.450;13.326;2023-03-29T11:45:27;6.70;;;3.80;;
3267;SDS011;1646;52.450;13.326;2023-03-29T11:50:30;3.50;;;3.20;;
3267;SDS011;1646;52.450;13.326;2023-03-29T11:55:33;6.20;;;3.83;;
3267;SDS011;1646;52.450;13.326;2023-03-29T12:00:35;6.80;;;3.63;;
3267;SDS011;1646;52.450;13.326;2023-03-29T12:05:38;5.13;;;3.33;;
3267;SDS011;1646;52.450;13.326;2023-03-29T12:10:41;7.20;;;3.30;;
3267;SDS011;1646;52.450;13.326;2023-03-29T12:15:46;5.73;;;3.73;;
3267;SDS011;1646;52.450;13.326;2023-03-29T12:20:50;3.43;;;2.80;;
3267;SDS011;1646;52.450;13.326;2023-03-29T12:25:56;6.03;;;4.03;;
3267;SDS011;1646;52.450;13.326;2023-03-29T12:31:04;6.57;;;3.40;;
3267;SDS011;1646;52.450;13.326;2023-03-29T12:36:18;5.43;;;3.30;;
3267;SDS011;1646;52.450;13.326;2023-03-29T12:41:50;9.37;;;4.00;;
3267;SDS011;1646;52.450;13.326;2023-03-29T12:47:10;7.77;;;3.73;;
3267;SDS011;1646;52.450;13.326;2023-03-29T12:52:21;6.70;;;3.50;;
3267;SDS011;1646;52.450;13.326;2023-03-29T12:57:25;8.50;;;2.90;;
3267;SDS011;1646;52.450;13.326;2023-03-29T13:02:33;4.90;;;2.87;;
3267;SDS011;1646;52.450;13.326;2023-03-29T13:07:43;6.20;;;3.50;;
3267;SDS011;1646;52.450;13.326;2023-03-29T13:12:43;6.70;;;3.00;;
3267;SDS011;1646;52.450;13.326;2023-03-29T13:17:45;6.93;;;3.30;;
3267;SDS011;1646;52.450;13.326;2023-03-29T13:22:56;6.30;;;3.57;;
3267;SDS011;1646;52.450;13.326;2023-03-29T13:28:08;5.10;;;3.00;;
3267;SDS011;1646;52.450;13.326;2023-03-29T13:33:19;8.67;;;3.70;;
3267;SDS011;1646;52.450;13.326;2023-03-29T13:38:42;6.60;;;3.10;;
3267;SDS011;1646;52.450;13.326;2023-03-29T13:43:47;3.40;;;3.07;;
3267;SDS011;1646;52.450;13.326;2023-03-29T13:48:52;6.23;;;3.40;;
3267;SDS011;1646;52.450;13.326;2023-03-29T13:53:56;3.80;;;3.30;;
3267;SDS011;1646;52.450;13.326;2023-03-29T13:59:00;8.90;;;3.53;;
3267;SDS011;1646;52.450;13.326;2023-03-29T14:04:04;5.10;;;3.50;;
3267;SDS011;1646;52.450;13.326;2023-03-29T14:09:05;7.70;;;3.10;;
3267;SDS011;1646;52.450;13.326;2023-03-29T14:14:05;4.00;;;3.37;;
3267;SDS011;1646;52.450;13.326;2023-03-29T14:19:09;7.50;;;3.63;;
3267;SDS011;1646;52.450;13.326;2023-03-29T14:24:11;5.47;;;3.43;;
3267;SDS011;1646;52.450;13.326;2023-03-29T14:29:14;10.10;;;3.73;;
3267;SDS011;1646;52.450;13.326;2023-03-29T14:34:16;6.13;;;3.90;;
3267;SDS011;1646;52.450;13.326;2023-03-29T14:39:15;9.80;;;4.10;;
3267;SDS011;1646;52.450;13.326;2023-03-29T14:44:16;5.00;;;4.33;;
3267;SDS011;1646;52.450;13.326;2023-03-29T14:49:18;6.07;;;4.33;;
3267;SDS011;1646;52.450;13.326;2023-03-29T14:54:19;10.43;;;6.83;;
3267;SDS011;1646;52.450;13.326;2023-03-29T14:59:27;7.27;;;4.67;;
3267;SDS011;1646;52.450;13.326;2023-03-29T15:04:33;6.80;;;4.87;;
3267;SDS011;1646;52.450;13.326;2023-03-29T15:09:33;7.70;;;4.83;;
3267;SDS011;1646;52.450;13.326;2023-03-29T15:14:33;9.93;;;5.13;;
3267;SDS011;1646;52.450;13.326;2023-03-29T15:19:34;7.47;;;5.37;;
3267;SDS011;1646;52.450;13.326;2023-03-29T15:24:33;7.47;;;4.77;;
3267;SDS011;1646;52.450;13.326;2023-03-29T15:29:39;7.60;;;4.77;;
3267;SDS011;1646;52.450;13.326;2023-03-29T15:34:40;7.30;;;5.20;;
3267;SDS011;1646;52.450;13.326;2023-03-29T15:39:38;10.87;;;5.73;;
3267;SDS011;1646;52.450;13.326;2023-03-29T15:44:41;8.80;;;6.03;;
3267;SDS011;1646;52.450;13.326;2023-03-29T15:49:41;8.87;;;5.60;;
3267;SDS011;1646;52.450;13.326;2023-03-29T15:54:39;6.93;;;5.30;;
3267;SDS011;1646;52.450;13.326;2023-03-29T15:59:39;9.67;;;6.40;;
3267;SDS011;1646;52.450;13.326;2023-03-29T16:04:38;7.10;;;5.00;;
3267;SDS011;1646;52.450;13.326;2023-03-29T16:09:37;6.80;;;5.07;;
3267;SDS011;1646;52.450;13.326;2023-03-29T16:14:36;6.60;;;5.33;;
3267;SDS011;1646;52.450;13.326;2023-03-29T16:19:35;7.67;;;5.53;;
3267;SDS011;1646;52.450;13.326;2023-03-29T16:24:33;8.60;;;4.67;;
3267;SDS011;1646;52.450;13.326;2023-03-29T16:29:33;6.20;;;4.97;;
3267;SDS011;1646;52.450;13.326;2023-03-29T16:34:32;8.60;;;5.63;;
3267;SDS011;1646;52.450;13.326;2023-03-29T16:39:31;7.53;;;5.40;;
3267;SDS011;1646;52.450;13.326;2023-03-29T16:44:29;8.20;;;5.97;;
3267;SDS011;1646;52.450;13.326;2023-03-29T16:49:29;9.67;;;5.30;;
3267;SDS011;1646;52.450;13.326;2023-03-29T16:54:27;10.63;;;5.20;;
3267;SDS011;1646;52.450;13.326;2023-03-29T16:59:28;6.73;;;5.30;;
3267;SDS011;1646;52.450;13.326;2023-03-29T17:04:26;6.63;;;5.03;;
3267;SDS011;1646;52.450;13.326;2023-03-29T17:09:25;6.90;;;4.83;;
3267;SDS011;1646;52.450;13.326;2023-03-29T17:14:25;7.20;;;4.90;;
3267;SDS011;1646;52.450;13.326;2023-03-29T17:19:24;8.20;;;5.13;;
3267;SDS011;1646;52.450;13.326;2023-03-29T17:24:23;10.40;;;6.10;;
3267;SDS011;1646;52.450;13.326;2023-03-29T17:29:23;5.70;;;4.93;;
3267;SDS011;1646;52.450;13.326;2023-03-29T17:34:21;12.30;;;5.50;;
3267;SDS011;1646;52.450;13.326;2023-03-29T17:39:19;8.47;;;5.20;;
3267;SDS011;1646;52.450;13.326;2023-03-29T17:44:20;10.93;;;5.20;;
3267;SDS011;1646;52.450;13.326;2023-03-29T17:49:20;7.00;;;4.90;;
3267;SDS011;1646;52.450;13.326;2023-03-29T17:54:18;9.30;;;5.90;;
3267;SDS011;1646;52.450;13.326;2023-03-29T17:59:16;13.43;;;6.20;;
3267;SDS011;1646;52.450;13.326;2023-03-29T18:04:16;15.13;;;6.13;;
3267;SDS011;1646;52.450;13.326;2023-03-29T18:09:14;11.03;;;6.43;;
3267;SDS011;1646;52.450;13.326;2023-03-29T18:14:13;10.83;;;5.93;;
3267;SDS011;1646;52.450;13.326;2023-03-29T18:19:11;7.17;;;5.70;;
3267;SDS011;1646;52.450;13.326;2023-03-29T18:24:11;10.67;;;6.30;;
3267;SDS011;1646;52.450;13.326;2023-03-29T18:29:09;8.23;;;6.47;;
3267;SDS011;1646;52.450;13.326;2023-03-29T18:34:07;12.50;;;6.43;;
3267;SDS011;1646;52.450;13.326;2023-03-29T18:39:06;10.27;;;6.33;;
3267;SDS011;1646;52.450;13.326;2023-03-29T18:44:08;9.80;;;6.07;;
3267;SDS011;1646;52.450;13.326;2023-03-29T18:49:21;10.73;;;7.43;;
3267;SDS011;1646;52.450;13.326;2023-03-29T18:54:20;10.20;;;7.23;;
3267;SDS011;1646;52.450;13.326;2023-03-29T18:59:20;11.43;;;7.57;;
3267;SDS011;1646;52.450;13.326;2023-03-29T19:04:18;16.10;;;6.70;;
3267;SDS011;1646;52.450;13.326;2023-03-29T19:09:16;12.87;;;6.57;;
3267;SDS011;1646;52.450;13.326;2023-03-29T19:14:14;10.93;;;6.60;;
3267;SDS011;1646;52.450;13.326;2023-03-29T19:19:20;9.23;;;6.50;;
3267;SDS011;1646;52.450;13.326;2023-03-29T19:24:21;11.03;;;6.40;;
3267;SDS011;1646;52.450;13.326;2023-03-29T19:29:19;11.20;;;7.40;;
3267;SDS011;1646;52.450;13.326;2023-03-29T19:34:19;8.60;;;6.20;;
3267;SDS011;1646;52.450;13.326;2023-03-29T19:39:19;11.00;;;6.90;;
3267;SDS011;1646;52.450;13.326;2023-03-29T19:44:18;9.03;;;6.80;;
3267;SDS011;1646;52.450;13.326;2023-03-29T19:49:20;8.40;;;7.10;;
3267;SDS011;1646;52.450;13.326;2023-03-29T19:54:18;10.43;;;6.60;;
3267;SDS011;1646;52.450;13.326;2023-03-29T19:59:17;9.73;;;6.60;;
3267;SDS011;1646;52.450;13.326;2023-03-29T20:04:15;10.17;;;7.20;;
3267;SDS011;1646;52.450;13.326;2023-03-29T20:09:15;10.10;;;7.10;;
3267;SDS011;1646;52.450;13.326;2023-03-29T20:14:14;10.00;;;7.33;;
3267;SDS011;1646;52.450;13.326;2023-03-29T20:19:12;14.33;;;7.27;;
3267;SDS011;1646;52.450;13.326;2023-03-29T20:24:13;10.07;;;6.93;;
3267;SDS011;1646;52.450;13.326;2023-03-29T20:29:13;8.50;;;6.17;;
3267;SDS011;1646;52.450;13.326;2023-03-29T20:34:12;11.30;;;7.10;;
3267;SDS011;1646;52.450;13.326;2023-03-29T20:39:10;8.00;;;6.10;;
3267;SDS011;1646;52.450;13.326;2023-03-29T20:44:14;11.37;;;6.20;;
3267;SDS011;1646;52.450;13.326;2023-03-29T20:49:14;12.40;;;6.80;;
3267;SDS011;1646;52.450;13.326;2023-03-29T20:54:12;14.90;;;5.90;;
3267;SDS011;1646;52.450;13.326;2023-03-29T20:59:11;9.10;;;6.43;;
3267;SDS011;1646;52.450;13.326;2023-03-29T21:04:11;8.17;;;5.90;;
3267;SDS011;1646;52.450;13.326;2023-03-29T21:09:09;11.07;;;7.57;;
3267;SDS011;1646;52.450;13.326;2023-03-29T21:14:08;9.40;;;6.27;;
3267;SDS011;1646;52.450;13.326;2023-03-29T21:19:07;8.07;;;5.90;;
3267;SDS011;1646;52.450;13.326;2023-03-29T21:24:07;12.13;;;6.90;;
3267;SDS011;1646;52.450;13.326;2023-03-29T21:29:08;8.60;;;6.30;;
3267;SDS011;1646;52.450;13.326;2023-03-29T21:34:07;11.17;;;6.20;;
3267;SDS011;1646;52.450;13.326;2023-03-29T21:39:07;10.30;;;5.87;;
3267;SDS011;1646;52.450;13.326;2023-03-29T21:44:05;9.10;;;5.77;;
3267;SDS011;1646;52.450;13.326;2023-03-29T21:49:03;8.67;;;5.43;;
3267;SDS011;1646;52.450;13.326;2023-03-29T21:54:01;9.13;;;5.93;;
3267;SDS011;1646;52.450;13.326;2023-03-29T21:59:02;10.83;;;6.63;;
3267;SDS011;1646;52.450;13.326;2023-03-29T22:04:00;8.27;;;5.93;;
3267;SDS011;1646;52.450;13.326;2023-03-29T22:08:59;9.97;;;6.40;;
3267;SDS011;1646;52.450;13.326;2023-03-29T22:13:58;10.23;;;6.33;;
3267;SDS011;1646;52.450;13.326;2023-03-29T22:18:58;9.80;;;6.70;;
3267;SDS011;1646;52.450;13.326;2023-03-29T22:23:56;7.40;;;5.30;;
3267;SDS011;1646;52.450;13.326;2023-03-29T22:28:56;9.10;;;5.90;;
3267;SDS011;1646;52.450;13.326;2023-03-29T22:33:57;12.20;;;5.90;;
3267;SDS011;1646;52.450;13.326;2023-03-29T22:38:57;7.40;;;5.27;;
3267;SDS011;1646;52.450;13.326;2023-03-29T22:43:56;13.50;;;6.20;;
3267;SDS011;1646;52.450;13.326;2023-03-29T22:48:57;8.23;;;5.97;;
3267;SDS011;1646;52.450;13.326;2023-03-29T22:53:56;8.47;;;5.73;;
3267;SDS011;1646;52.450;13.326;2023-03-29T22:58:54;25.60;;;6.40;;
3267;SDS011;1646;52.450;13.326;2023-03-29T23:03:53;10.73;;;6.27;;
3267;SDS011;1646;52.450;13.326;2023-03-29T23:08:53;8.33;;;6.00;;
3267;SDS011;1646;52.450;13.326;2023-03-29T23:13:51;8.97;;;5.60;;
3267;SDS011;1646;52.450;13.326;2023-03-29T23:18:49;7.13;;;5.13;;
3267;SDS011;1646;52.450;13.326;2023-03-29T23:23:47;8.73;;;5.73;;
3267;SDS011;1646;52.450;13.326;2023-03-29T23:28:47;9.03;;;5.50;;
3267;SDS011;1646;52.450;13.326;2023-03-29T23:33:47;8.07;;;5.70;;
3267;SDS011;1646;52.450;13.326;2023-03-29T23:38:45;9.00;;;5.23;;
3267;SDS011;1646;52.450;13.326;2023-03-29T23:43:44;9.73;;;6.00;;
3267;SDS011;1646;52.450;13.326;2023-03-29T23:48:44;7.37;;;5.43;;
3267;SDS011;1646;52.450;13.326;2023-03-29T23:53:44;9.10;;;6.57;;
3267;SDS011;1646;52.450;13.326;2023-03-29T23:58:42;12.77;;;5.83;;
